createdAt,value
2023-05-23T00:00:15.568Z,18.90
2023-05-23T00:02:43.005Z,18.90
2023-05-23T00:05:10.134Z,18.90
2023-05-23T00:07:36.881Z,18.90
2023-05-23T00:10:04.361Z,18.90
2023-05-23T00:12:31.077Z,18.90
2023-05-23T00:14:57.759Z,18.90
2023-05-23T00:17:25.787Z,19.00
2023-05-23T00:19:52.899Z,18.90
2023-05-23T00:22:19.694Z,18.80
2023-05-23T00:24:46.363Z,18.80
2023-05-23T00:27:13.093Z,18.80
2023-05-23T00:29:39.799Z,18.70
2023-05-23T00:32:06.559Z,18.70
2023-05-23T00:34:34.194Z,18.70
2023-05-23T00:37:02.199Z,18.70
2023-05-23T00:39:29.077Z,18.70
2023-05-23T00:41:56.384Z,18.60
2023-05-23T00:44:23.431Z,18.70
2023-05-23T00:46:53.976Z,18.60
2023-05-23T00:49:21.185Z,18.60
2023-05-23T00:51:49.625Z,18.60
2023-05-23T00:54:19.720Z,18.60
2023-05-23T00:56:46.976Z,18.50
2023-05-23T00:59:13.994Z,18.60
2023-05-23T01:01:41.204Z,18.50
2023-05-23T01:04:07.996Z,18.60
2023-05-23T01:06:34.727Z,18.50
2023-05-23T01:09:02.871Z,18.50
2023-05-23T01:11:42.425Z,18.50
2023-05-23T01:14:17.805Z,18.50
2023-05-23T01:16:48.963Z,18.50
2023-05-23T01:19:53.770Z,18.40
2023-05-23T01:22:39.575Z,18.20
2023-05-23T01:25:33.140Z,18.20
2023-05-23T01:28:05.622Z,18.30
2023-05-23T01:30:35.947Z,18.30
2023-05-23T01:33:04.666Z,18.20
2023-05-23T01:35:32.609Z,18.20
2023-05-23T01:37:59.308Z,18.10
2023-05-23T01:40:27.288Z,18.20
2023-05-23T01:42:57.138Z,18.20
2023-05-23T01:45:26.971Z,18.20
2023-05-23T01:47:54.523Z,18.20
2023-05-23T01:50:22.293Z,18.10
2023-05-23T01:52:49.585Z,18.10
2023-05-23T01:55:22.460Z,18.10
2023-05-23T01:57:55.160Z,17.90
2023-05-23T02:00:22.364Z,18.00
2023-05-23T02:02:49.117Z,17.90
2023-05-23T02:05:15.870Z,17.90
2023-05-23T02:07:42.527Z,17.90
2023-05-23T02:10:09.718Z,17.90
2023-05-23T02:12:36.461Z,17.80
2023-05-23T02:15:03.390Z,17.80
2023-05-23T02:17:30.686Z,17.80
2023-05-23T02:19:57.359Z,17.80
2023-05-23T02:22:27.288Z,17.70
2023-05-23T02:24:54.139Z,17.50
2023-05-23T02:27:20.981Z,17.30
2023-05-23T02:29:47.719Z,17.20
2023-05-23T02:32:14.449Z,17.20
2023-05-23T02:34:41.743Z,17.30
2023-05-23T02:37:08.445Z,17.20
2023-05-23T02:39:38.151Z,17.10
2023-05-23T02:42:05.053Z,17.00
2023-05-23T02:44:31.947Z,17.00
2023-05-23T02:46:58.580Z,17.00
2023-05-23T02:49:25.779Z,16.90
2023-05-23T02:51:52.775Z,16.90
2023-05-23T02:54:19.474Z,16.80
2023-05-23T02:56:46.798Z,16.80
2023-05-23T02:59:13.726Z,16.80
2023-05-23T03:01:40.669Z,16.90
2023-05-23T03:04:07.531Z,16.90
2023-05-23T03:06:36.972Z,16.90
2023-05-23T03:09:04.101Z,16.80
2023-05-23T03:11:31.046Z,16.60
2023-05-23T03:13:57.807Z,16.50
2023-05-23T03:16:24.699Z,16.50
2023-05-23T03:18:51.519Z,16.50
2023-05-23T03:21:18.407Z,16.50
2023-05-23T03:23:45.317Z,16.40
2023-05-23T03:26:12.190Z,16.50
2023-05-23T03:28:39.043Z,16.50
2023-05-23T03:31:06.084Z,16.50
2023-05-23T03:33:33.951Z,16.40
2023-05-23T03:36:00.795Z,16.30
2023-05-23T03:38:28.101Z,16.40
2023-05-23T03:40:54.892Z,16.40
2023-05-23T03:43:21.727Z,16.30
2023-05-23T03:45:48.548Z,16.30
2023-05-23T03:48:15.340Z,16.30
2023-05-23T03:50:42.267Z,16.40
2023-05-23T03:53:09.050Z,16.50
2023-05-23T03:55:35.832Z,16.40
2023-05-23T03:58:02.623Z,16.30
2023-05-23T04:00:29.431Z,16.30
2023-05-23T04:02:57.445Z,16.40
2023-05-23T04:05:24.430Z,16.30
2023-05-23T04:07:51.702Z,16.40
2023-05-23T04:10:18.717Z,16.40
2023-05-23T04:12:45.890Z,16.30
2023-05-23T04:15:12.698Z,16.20
2023-05-23T04:17:39.632Z,16.10
2023-05-23T04:20:10.195Z,16.10
2023-05-23T04:22:37.168Z,16.10
2023-05-23T04:25:04.353Z,16.10
2023-05-23T04:27:31.146Z,15.90
2023-05-23T04:29:58.339Z,15.90
2023-05-23T04:32:25.480Z,15.90
2023-05-23T04:34:52.559Z,15.90
2023-05-23T04:37:26.174Z,16.10
2023-05-23T04:39:53.242Z,16.10
2023-05-23T04:42:24.347Z,16.10
2023-05-23T04:44:52.760Z,16.20
2023-05-23T04:47:19.590Z,16.10
2023-05-23T04:49:46.459Z,16.00
2023-05-23T04:52:13.448Z,15.90
2023-05-23T04:54:44.692Z,16.10
2023-05-23T04:57:12.479Z,15.80
2023-05-23T04:59:39.534Z,15.50
2023-05-23T05:02:06.628Z,15.70
2023-05-23T05:04:33.349Z,15.80
2023-05-23T05:07:00.099Z,15.70
2023-05-23T05:09:26.728Z,15.70
2023-05-23T05:11:53.373Z,15.60
2023-05-23T05:14:20.103Z,15.70
2023-05-23T05:16:47.853Z,15.60
2023-05-23T05:19:14.682Z,15.50
2023-05-23T05:21:41.343Z,15.70
2023-05-23T05:24:09.688Z,15.70
2023-05-23T05:26:36.709Z,15.70
2023-05-23T05:29:04.138Z,15.60
2023-05-23T05:31:30.937Z,15.70
2023-05-23T05:33:57.723Z,15.70
2023-05-23T05:36:24.347Z,15.60
2023-05-23T05:38:51.205Z,15.60
2023-05-23T05:41:17.818Z,15.70
2023-05-23T05:43:44.575Z,15.60
2023-05-23T05:46:11.958Z,15.60
2023-05-23T05:48:38.686Z,15.70
2023-05-23T05:51:05.361Z,15.80
2023-05-23T05:53:32.065Z,15.80
2023-05-23T05:55:58.732Z,15.90
2023-05-23T05:58:25.448Z,15.90
2023-05-23T06:00:53.490Z,15.80
2023-05-23T06:03:20.349Z,15.90
2023-05-23T06:05:47.119Z,16.00
2023-05-23T06:08:13.805Z,15.90
2023-05-23T06:10:40.832Z,15.80
2023-05-23T06:13:07.641Z,15.80
2023-05-23T06:15:34.374Z,15.80
2023-05-23T06:18:01.236Z,15.90
2023-05-23T06:20:28.777Z,15.90
2023-05-23T06:22:55.665Z,16.00
2023-05-23T06:25:22.364Z,16.10
2023-05-23T06:27:50.048Z,16.00
2023-05-23T06:30:16.877Z,16.10
2023-05-23T06:32:43.620Z,16.20
2023-05-23T06:35:10.347Z,16.00
2023-05-23T06:37:36.987Z,15.90
2023-05-23T06:40:04.068Z,15.90
2023-05-23T06:42:30.722Z,15.90
2023-05-23T06:44:57.503Z,16.00
2023-05-23T06:47:24.165Z,16.20
2023-05-23T06:49:50.819Z,16.30
2023-05-23T06:52:17.471Z,16.20
2023-05-23T06:54:44.130Z,16.20
2023-05-23T06:57:10.985Z,16.40
2023-05-23T06:59:40.412Z,16.50
2023-05-23T07:02:07.033Z,16.50
2023-05-23T07:04:33.654Z,16.60
2023-05-23T07:07:00.402Z,16.60
2023-05-23T07:09:27.080Z,16.60
2023-05-23T07:11:53.873Z,16.70
2023-05-23T07:14:20.846Z,16.70
2023-05-23T07:16:47.475Z,16.80
2023-05-23T07:19:14.215Z,16.90
2023-05-23T07:21:40.864Z,17.10
2023-05-23T07:24:07.588Z,17.30
2023-05-23T07:26:34.875Z,17.20
2023-05-23T07:29:01.566Z,17.20
2023-05-23T07:31:28.319Z,17.20
2023-05-23T07:33:56.653Z,17.20
2023-05-23T07:36:23.595Z,16.80
2023-05-23T07:38:50.303Z,17.00
2023-05-23T07:41:16.966Z,17.10
2023-05-23T07:43:43.611Z,17.30
2023-05-23T07:46:10.381Z,17.40
2023-05-23T07:48:37.047Z,17.50
2023-05-23T07:51:04.068Z,17.40
2023-05-23T07:53:30.849Z,17.20
2023-05-23T07:55:57.508Z,17.20
2023-05-23T07:58:24.250Z,17.30
2023-05-23T08:00:52.616Z,17.60
2023-05-23T08:03:20.051Z,17.70
2023-05-23T08:05:47.340Z,18.00
2023-05-23T08:08:14.033Z,18.10
2023-05-23T08:10:40.879Z,18.30
2023-05-23T08:13:09.761Z,18.40
2023-05-23T08:15:36.405Z,18.20
2023-05-23T08:18:03.844Z,17.80
2023-05-23T08:20:31.221Z,17.90
2023-05-23T08:23:01.916Z,18.20
2023-05-23T08:25:32.398Z,18.40
2023-05-23T08:28:00.459Z,18.60
2023-05-23T08:30:28.690Z,18.90
2023-05-23T08:32:56.321Z,18.70
2023-05-23T08:35:23.701Z,18.70
2023-05-23T08:37:50.868Z,18.60
2023-05-23T08:40:22.488Z,18.70
2023-05-23T08:42:52.529Z,18.60
2023-05-23T08:45:19.347Z,18.70
2023-05-23T08:47:47.527Z,18.80
2023-05-23T08:50:16.863Z,18.80
2023-05-23T08:52:59.023Z,18.70
2023-05-23T08:55:27.856Z,18.60
2023-05-23T08:58:00.830Z,18.50
2023-05-23T09:00:28.319Z,18.30
2023-05-23T09:02:55.665Z,18.20
2023-05-23T09:05:22.649Z,18.20
2023-05-23T09:07:51.175Z,18.10
2023-05-23T09:10:20.289Z,18.20
2023-05-23T09:12:47.320Z,18.50
2023-05-23T09:15:14.797Z,18.60
2023-05-23T09:17:41.683Z,18.70
2023-05-23T09:20:14.488Z,18.80
2023-05-23T09:22:41.848Z,19.10
2023-05-23T09:25:08.998Z,19.80
2023-05-23T09:27:36.257Z,20.00
2023-05-23T09:30:07.607Z,20.30
2023-05-23T09:32:34.369Z,20.90
2023-05-23T09:35:05.995Z,21.70
2023-05-23T09:37:43.249Z,22.00
2023-05-23T09:40:12.341Z,22.20
2023-05-23T09:42:46.341Z,21.70
2023-05-23T09:45:16.993Z,21.10
2023-05-23T09:47:53.781Z,20.80
2023-05-23T09:50:21.505Z,20.20
2023-05-23T09:52:48.459Z,19.80
2023-05-23T09:55:15.412Z,19.60
2023-05-23T09:57:43.878Z,19.30
2023-05-23T10:00:12.445Z,19.20
2023-05-23T10:02:44.926Z,19.00
2023-05-23T10:05:36.388Z,18.90
2023-05-23T10:08:10.901Z,18.70
2023-05-23T10:11:12.475Z,18.60
2023-05-23T10:13:42.721Z,18.60
2023-05-23T10:16:17.586Z,18.70
2023-05-23T10:18:45.227Z,18.70
2023-05-23T10:21:15.617Z,18.80
2023-05-23T10:23:42.985Z,18.90
2023-05-23T10:26:11.039Z,19.00
2023-05-23T10:28:38.028Z,19.00
2023-05-23T10:31:04.710Z,19.10
2023-05-23T10:33:38.542Z,19.10
2023-05-23T10:36:13.183Z,19.10
2023-05-23T10:38:51.878Z,19.10
2023-05-23T10:41:38.785Z,18.80
2023-05-23T10:44:17.709Z,18.70
2023-05-23T10:47:01.377Z,18.60
2023-05-23T10:49:45.406Z,18.40
2023-05-23T10:52:14.224Z,18.40
2023-05-23T10:54:44.752Z,18.40
2023-05-23T10:57:12.910Z,18.50
2023-05-23T10:59:40.196Z,18.40
2023-05-23T11:02:17.321Z,18.40
2023-05-23T11:04:44.509Z,18.50
2023-05-23T11:07:31.099Z,18.70
2023-05-23T11:10:09.156Z,18.80
2023-05-23T11:12:44.348Z,18.80
2023-05-23T11:15:17.107Z,18.70
2023-05-23T11:17:52.816Z,18.80
2023-05-23T11:20:26.355Z,18.80
2023-05-23T11:22:56.118Z,18.80
2023-05-23T11:25:40.959Z,19.10
2023-05-23T11:28:07.756Z,19.40
2023-05-23T11:30:36.966Z,19.80
2023-05-23T11:33:13.648Z,19.90
2023-05-23T11:35:45.118Z,20.30
2023-05-23T11:38:12.001Z,20.50
2023-05-23T11:40:41.253Z,20.80
2023-05-23T11:43:11.387Z,21.20
2023-05-23T11:45:38.996Z,21.90
2023-05-23T11:48:11.569Z,22.20
2023-05-23T11:50:49.520Z,22.70
2023-05-23T11:53:20.501Z,22.70
2023-05-23T11:55:53.219Z,22.30
2023-05-23T11:58:22.867Z,22.00
2023-05-23T12:00:49.630Z,22.60
2023-05-23T12:03:16.516Z,22.70
2023-05-23T12:05:45.386Z,22.40
2023-05-23T12:08:16.086Z,22.00
2023-05-23T12:10:53.570Z,21.60
2023-05-23T12:13:24.041Z,21.30
2023-05-23T12:15:53.678Z,20.60
2023-05-23T12:18:22.188Z,20.30
2023-05-23T12:20:51.459Z,20.50
2023-05-23T12:23:21.733Z,21.00
2023-05-23T12:25:56.286Z,21.80
2023-05-23T12:28:36.907Z,22.00
2023-05-23T12:31:13.875Z,20.90
2023-05-23T12:33:45.100Z,20.30
2023-05-23T12:36:23.004Z,19.90
2023-05-23T12:38:49.703Z,19.70
2023-05-23T12:41:19.680Z,19.40
2023-05-23T12:43:51.950Z,19.30
2023-05-23T12:46:19.497Z,19.40
2023-05-23T12:48:47.289Z,19.10
2023-05-23T12:51:14.833Z,19.00
2023-05-23T12:53:41.701Z,19.00
2023-05-23T12:56:08.376Z,18.90
2023-05-23T12:58:35.222Z,18.90
2023-05-23T13:01:05.111Z,18.70
2023-05-23T13:03:32.102Z,18.80
2023-05-23T13:05:59.576Z,18.70
2023-05-23T13:08:27.553Z,19.10
2023-05-23T13:10:54.624Z,19.80
2023-05-23T13:13:22.466Z,20.00
2023-05-23T13:15:51.231Z,19.90
2023-05-23T13:18:18.400Z,19.70
2023-05-23T13:20:45.286Z,19.60
2023-05-23T13:23:11.965Z,19.10
2023-05-23T13:25:38.929Z,19.00
2023-05-23T13:28:06.605Z,18.90
2023-05-23T13:30:34.463Z,19.10
2023-05-23T13:33:01.282Z,19.10
2023-05-23T13:35:28.138Z,18.90
2023-05-23T13:37:54.848Z,19.10
2023-05-23T13:40:22.245Z,19.30
2023-05-23T13:42:53.455Z,19.50
2023-05-23T13:45:22.380Z,19.70
2023-05-23T13:47:49.272Z,20.00
2023-05-23T13:50:16.398Z,20.10
2023-05-23T13:52:45.621Z,20.30
2023-05-23T13:55:13.324Z,20.00
2023-05-23T13:57:39.963Z,19.90
2023-05-23T14:00:08.831Z,19.70
2023-05-23T14:02:35.743Z,19.70
2023-05-23T14:05:02.752Z,19.60
2023-05-23T14:07:29.520Z,19.40
2023-05-23T14:09:57.461Z,19.10
2023-05-23T14:12:24.189Z,18.90
2023-05-23T14:14:50.927Z,19.20
2023-05-23T14:17:17.834Z,19.50
2023-05-23T14:19:45.704Z,19.20
2023-05-23T14:22:12.577Z,19.10
2023-05-23T14:24:39.317Z,18.60
2023-05-23T14:27:08.686Z,18.50
2023-05-23T14:29:36.921Z,18.30
2023-05-23T14:32:04.151Z,18.00
2023-05-23T14:34:31.332Z,18.00
2023-05-23T14:36:58.036Z,17.90
2023-05-23T14:39:25.636Z,17.80
2023-05-23T14:41:52.537Z,17.80
2023-05-23T14:44:19.536Z,17.80
2023-05-23T14:46:50.060Z,17.70
2023-05-23T14:49:17.693Z,17.40
2023-05-23T14:51:50.311Z,17.10
2023-05-23T14:54:18.714Z,17.10
2023-05-23T14:56:45.624Z,17.20
2023-05-23T14:59:12.432Z,17.30
2023-05-23T15:01:40.386Z,17.30
2023-05-23T15:04:09.047Z,17.40
2023-05-23T15:06:37.947Z,17.30
2023-05-23T15:09:04.862Z,17.30
2023-05-23T15:11:32.336Z,17.30
2023-05-23T15:13:59.811Z,17.40
2023-05-23T15:16:26.921Z,17.40
2023-05-23T15:18:53.869Z,17.30
2023-05-23T15:21:20.974Z,17.30
2023-05-23T15:23:47.616Z,17.30
2023-05-23T15:26:14.375Z,17.00
2023-05-23T15:28:41.023Z,16.90
2023-05-23T15:31:07.744Z,16.80
2023-05-23T15:33:34.422Z,16.70
2023-05-23T15:36:01.955Z,16.70
2023-05-23T15:38:28.607Z,16.70
2023-05-23T15:40:56.503Z,16.70
2023-05-23T15:43:24.901Z,17.00
2023-05-23T15:45:52.492Z,16.70
2023-05-23T15:48:19.498Z,16.70
2023-05-23T15:50:46.249Z,16.80
2023-05-23T15:53:12.908Z,16.80
2023-05-23T15:55:42.030Z,16.70
2023-05-23T15:58:10.612Z,16.50
2023-05-23T16:00:37.366Z,16.50
2023-05-23T16:03:04.198Z,16.50
2023-05-23T16:05:30.910Z,16.50
2023-05-23T16:07:57.778Z,16.30
2023-05-23T16:10:25.469Z,16.40
2023-05-23T16:12:52.283Z,16.40
2023-05-23T16:15:19.021Z,16.20
2023-05-23T16:17:46.012Z,16.20
2023-05-23T16:20:12.978Z,16.30
2023-05-23T16:22:40.681Z,16.30
2023-05-23T16:25:09.241Z,16.40
2023-05-23T16:27:36.018Z,16.40
2023-05-23T16:30:03.269Z,16.40
2023-05-23T16:32:30.210Z,16.60
2023-05-23T16:34:56.930Z,16.40
2023-05-23T16:37:23.598Z,16.30
2023-05-23T16:39:50.413Z,16.40
2023-05-23T16:42:17.782Z,16.50
2023-05-23T16:44:45.356Z,16.30
2023-05-23T16:47:12.241Z,16.20
2023-05-23T16:49:39.033Z,16.30
2023-05-23T16:52:06.112Z,16.30
2023-05-23T16:54:32.841Z,16.20
2023-05-23T16:57:01.928Z,16.30
2023-05-23T16:59:30.027Z,16.30
2023-05-23T17:01:57.095Z,16.30
2023-05-23T17:04:24.118Z,16.20
2023-05-23T17:06:51.367Z,16.20
2023-05-23T17:09:18.196Z,15.90
2023-05-23T17:11:45.255Z,15.80
2023-05-23T17:14:12.430Z,15.70
2023-05-23T17:16:39.338Z,15.70
2023-05-23T17:19:06.362Z,15.70
2023-05-23T17:21:33.524Z,15.70
2023-05-23T17:24:00.332Z,15.70
2023-05-23T17:26:27.538Z,15.70
2023-05-23T17:28:54.248Z,15.60
2023-05-23T17:31:21.391Z,15.50
2023-05-23T17:33:48.135Z,15.60
2023-05-23T17:36:14.940Z,15.50
2023-05-23T17:38:41.930Z,15.50
2023-05-23T17:41:08.650Z,15.40
2023-05-23T17:43:35.336Z,15.30
2023-05-23T17:46:02.053Z,15.40
2023-05-23T17:48:45.856Z,15.40
2023-05-23T17:51:14.378Z,15.40
2023-05-23T17:53:41.684Z,15.30
2023-05-23T17:56:09.375Z,15.20
2023-05-23T17:58:37.729Z,15.10
2023-05-23T18:01:05.863Z,15.10
2023-05-23T18:03:32.818Z,15.10
2023-05-23T18:05:59.615Z,15.10
2023-05-23T18:08:26.372Z,15.10
2023-05-23T18:10:53.079Z,14.90
2023-05-23T18:13:19.948Z,14.80
2023-05-23T18:15:46.710Z,15.00
2023-05-23T18:18:13.490Z,15.00
2023-05-23T18:20:40.940Z,14.90
2023-05-23T18:23:08.492Z,14.80
2023-05-23T18:25:35.226Z,14.90
2023-05-23T18:28:02.770Z,14.90
2023-05-23T18:30:29.595Z,14.70
2023-05-23T18:32:56.515Z,14.70
2023-05-23T18:35:23.395Z,14.70
2023-05-23T18:37:50.221Z,14.60
2023-05-23T18:40:17.067Z,14.40
2023-05-23T18:42:43.935Z,14.40
2023-05-23T18:45:11.011Z,14.40
2023-05-23T18:47:37.809Z,14.30
2023-05-23T18:50:04.872Z,14.30
2023-05-23T18:52:33.500Z,14.40
2023-05-23T18:55:00.573Z,14.30
2023-05-23T18:57:27.369Z,14.20
2023-05-23T18:59:54.068Z,14.10
2023-05-23T19:02:21.089Z,14.10
2023-05-23T19:04:48.013Z,14.10
2023-05-23T19:07:14.842Z,14.10
2023-05-23T19:09:41.497Z,14.10
2023-05-23T19:12:08.297Z,13.90
2023-05-23T19:14:35.119Z,13.80
2023-05-23T19:17:05.860Z,13.80
2023-05-23T19:19:36.600Z,13.80
2023-05-23T19:22:03.502Z,13.80
2023-05-23T19:24:30.530Z,13.90
2023-05-23T19:26:57.345Z,13.80
2023-05-23T19:29:24.016Z,13.80
2023-05-23T19:31:50.735Z,13.80
2023-05-23T19:34:17.435Z,13.80
2023-05-23T19:36:44.107Z,13.90
2023-05-23T19:39:12.506Z,13.70
2023-05-23T19:41:40.207Z,13.70
2023-05-23T19:44:07.057Z,13.80
2023-05-23T19:46:33.724Z,13.70
2023-05-23T19:49:00.984Z,13.80
2023-05-23T19:51:29.155Z,13.70
2023-05-23T19:53:56.076Z,13.80
2023-05-23T19:56:22.935Z,13.80
2023-05-23T19:58:49.590Z,13.70
2023-05-23T20:01:16.403Z,13.70
2023-05-23T20:03:43.128Z,13.70
2023-05-23T20:06:10.094Z,13.70
2023-05-23T20:08:36.956Z,13.70
2023-05-23T20:11:03.735Z,13.60
2023-05-23T20:13:30.391Z,13.60
2023-05-23T20:15:57.313Z,13.60
2023-05-23T20:18:24.009Z,13.60
2023-05-23T20:20:50.855Z,13.60
2023-05-23T20:23:17.564Z,13.70
2023-05-23T20:25:44.371Z,13.70
2023-05-23T20:28:11.228Z,13.70
2023-05-23T20:30:37.849Z,13.70
2023-05-23T20:33:04.723Z,13.60
2023-05-23T20:35:31.703Z,13.60
2023-05-23T20:37:58.723Z,13.60
2023-05-23T20:40:27.370Z,13.60
2023-05-23T20:42:54.094Z,13.50
2023-05-23T20:45:21.853Z,13.50
2023-05-23T20:47:48.643Z,13.50
2023-05-23T20:50:15.870Z,13.40
2023-05-23T20:52:43.277Z,13.40
2023-05-23T20:55:10.749Z,13.30
2023-05-23T20:57:37.715Z,13.30
2023-05-23T21:00:14.328Z,13.10
2023-05-23T21:02:42.368Z,13.00
2023-05-23T21:05:10.819Z,13.00
2023-05-23T21:07:38.257Z,12.90
2023-05-23T21:10:05.358Z,12.90
2023-05-23T21:12:32.137Z,12.90
2023-05-23T21:14:58.990Z,12.90
2023-05-23T21:17:26.246Z,12.90
2023-05-23T21:19:53.025Z,12.90
2023-05-23T21:22:19.670Z,12.80
2023-05-23T21:24:46.373Z,12.80
2023-05-23T21:27:13.232Z,12.80
2023-05-23T21:29:40.440Z,12.80
2023-05-23T21:32:07.363Z,12.70
2023-05-23T21:34:34.086Z,12.60
2023-05-23T21:37:00.754Z,12.50
2023-05-23T21:39:35.988Z,12.50
2023-05-23T21:42:09.977Z,12.50
2023-05-23T21:44:38.242Z,12.50
2023-05-23T21:47:07.254Z,12.40
2023-05-23T21:49:35.341Z,12.50
2023-05-23T21:52:02.563Z,12.40
2023-05-23T21:54:29.235Z,12.40
2023-05-23T21:56:56.176Z,12.30
2023-05-23T21:59:23.168Z,12.20
2023-05-23T22:01:50.069Z,12.20
2023-05-23T22:04:19.963Z,12.20
2023-05-23T22:06:47.147Z,12.20
2023-05-23T22:09:15.225Z,12.20
2023-05-23T22:11:42.524Z,12.20
2023-05-23T22:14:09.742Z,12.20
2023-05-23T22:16:39.761Z,12.20
2023-05-23T22:19:06.987Z,12.20
2023-05-23T22:21:33.884Z,12.20
2023-05-23T22:24:00.735Z,12.10
2023-05-23T22:26:28.097Z,12.10
2023-05-23T22:28:55.383Z,12.00
2023-05-23T22:31:24.039Z,11.90
2023-05-23T22:33:51.204Z,11.90
2023-05-23T22:36:18.043Z,11.80
2023-05-23T22:38:45.625Z,11.60
2023-05-23T22:41:12.396Z,11.50
2023-05-23T22:43:39.331Z,11.40
2023-05-23T22:46:06.283Z,11.40
2023-05-23T22:48:33.902Z,11.50
2023-05-23T22:51:02.053Z,11.50
2023-05-23T22:53:29.427Z,11.50
2023-05-23T22:55:56.178Z,11.50
2023-05-23T22:58:22.906Z,11.50
2023-05-23T23:00:49.569Z,11.50
2023-05-23T23:03:16.405Z,11.50
2023-05-23T23:05:44.366Z,11.50
2023-05-23T23:08:11.939Z,11.50
2023-05-23T23:10:38.908Z,11.40
2023-05-23T23:13:05.741Z,11.40
2023-05-23T23:15:33.969Z,11.40
2023-05-23T23:18:01.291Z,11.40
2023-05-23T23:20:28.422Z,11.40
2023-05-23T23:22:55.433Z,11.30
2023-05-23T23:25:23.125Z,11.40
2023-05-23T23:27:50.049Z,11.30
2023-05-23T23:30:16.680Z,11.30
2023-05-23T23:32:43.569Z,11.30
2023-05-23T23:35:10.249Z,11.20
2023-05-23T23:37:36.977Z,11.20
2023-05-23T23:40:03.990Z,11.20
2023-05-23T23:42:30.679Z,11.10
2023-05-23T23:44:57.322Z,11.10
2023-05-23T23:47:23.985Z,11.10
2023-05-23T23:49:51.264Z,11.10
2023-05-23T23:52:17.933Z,11.00
2023-05-23T23:54:45.566Z,11.00
2023-05-23T23:57:14.026Z,11.00
2023-05-23T23:59:44.158Z,11.00
